ダーウィン国際空港の過去48時間の天気

ダーウィン国際空港 (Darwin Airport)

現在時刻: 2/18 08:51 ACST (2/17 23:21 UTC) 以下の時間は現地時間です。

過去48時間のMETAR気象情報
時間 風向 風速(m/s) 視程 気温(℃) 湿度(%) 気圧(hPa) 天気現象
18 08:30 西 3 10km以上 29 79 1011
18 08:00 西 2 10km以上 29 79 1010
18 07:30 西 3 10km以上 29 79 1010
18 07:00 西 2 10km以上 28 84 1009
18 06:30 西 2 10km以上 28 84 1009
18 06:00 西 2 10km以上 28 84 1009
18 05:30 西 2 10km以上 28 84 1009
18 05:00 西 2 10km以上 28 84 1009
18 04:30 南西 2 10km以上 28 84 1009
18 04:00 西 3 10km以上 28 84 1008
18 03:30 西 2 10km以上 28 84 1009
18 03:00 西 2 10km以上 28 79 1009
18 02:30 南西 1 10km以上 27 84 1009
18 02:00 静穏 0 10km以上 27 84 1009
18 01:30 西 1 10km以上 27 84 1010
18 01:00 西南西 1 10km以上 27 84 1010
18 00:30 1 10km以上 27 84 1011
18 00:00 2 10km以上 28 79 1011
17 23:30 2 10km以上 28 79 1011
17 23:00 南南西 3 10km以上 28 74 1011
17 22:30 南南西 3 10km以上 27 84 1011
17 22:00 3 10km以上 27 79 1011
17 21:30 2 10km以上 27 79 1010
17 21:00 南西 2 10km以上 27 79 1010
17 20:30 南西 2 10km以上 27 79 1010
17 20:00 3 10km以上 27 74 1009
17 19:30 4 10km以上 27 74 1009
17 19:00 南南西 4 10km以上 28 74 1009
17 18:30 南南西 4 10km以上 30 59 1009
17 18:00 5 10km以上 29 58 1008
17 17:30 南南西 3 10km以上 31 49 1008 周辺でしゅう雨
17 17:00 南東 5 10km以上 28 51 1008 弱いしゅう雨 周辺で雷
17 16:30 南南東 5 10km以上 28 55 1008 弱いしゅう雨
17 16:12 西北西 6 10km以上 33 59 1008 弱い雷雨
17 15:30 西北西 7 10km以上 33 59 1008 周辺で雷
17 15:00 西北西 7 10km以上 33 59 1008 周辺でしゅう雨 砂嵐
17 14:30 西北西 7 10km以上 33 59 1009 周辺でしゅう雨
17 14:00 西北西 6 10km以上 33 59 1009
17 13:30 西北西 5 10km以上 33 59 1010
17 13:00 西北西 5 10km以上 33 59 1010
17 12:30 北西 4 10km以上 32 63 1011
17 12:00 北西 4 10km以上 33 63 1011
17 11:30 西北西 3 10km以上 32 63 1011
17 11:00 西南西 3 10km以上 31 66 1011
17 10:30 西 2 10km以上 31 66 1012
17 10:00 西 3 10km以上 30 70 1012
17 09:30 西 3 10km以上 30 75 1012
17 09:00 西北西 2 10km以上 30 75 1012
17 08:30 東南東 1 10km以上 28 84 1012
17 08:00 1 10km以上 26 89 1011
17 07:30 東南東 1 10km以上 26 89 1011
17 07:00 東南東 1 10km以上 25 94 1011
17 06:30 静穏 0 10km以上 25 94 1010
17 06:00 静穏 0 10km以上 25 94 1010
17 05:30 静穏 0 10km以上 25 94 1010
17 05:00 静穏 0 10km以上 25 94 1009
17 04:30 1 10km以上 25 94 1009
17 04:00 静穏 0 10km以上 25 94 1009
17 03:30 静穏 0 10km以上 25 94 1009
17 03:00 1 10km以上 25 94 1009
17 02:30 2 10km以上 26 89 1009
17 02:00 1 10km以上 26 89 1010
17 01:30 南南東 2 10km以上 26 89 1010
17 01:00 南東 1 10km以上 26 84 1011
17 00:30 西南西 1 10km以上 26 84 1011
17 00:00 南南東 2 10km以上 26 84 1012
16 23:30 1 10km以上 26 84 1012
16 23:00 3 10km以上 26 84 1012
16 22:30 東南東 3 10km以上 26 84 1012
16 22:00 南東 3 10km以上 26 84 1011
16 21:30 南南東 3 10km以上 26 84 1011
16 21:00 南南東 3 10km以上 26 84 1011
16 20:30 南南東 3 10km以上 26 84 1011
16 20:00 南東 4 10km以上 26 79 1011
16 19:30 4 10km以上 26 79 1011
16 19:00 6 10km以上 26 79 1010 周辺でしゅう雨
16 18:30 南南西 8 10km以上 28 66 1010 周辺でしゅう雨
16 18:00 西 7 10km以上 31 66 1009
16 17:30 西 7 10km以上 31 66 1008
16 17:00 西北西 7 10km以上 32 63 1008
16 16:30 西北西 6 10km以上 32 63 1008 砂嵐
16 16:00 西北西 6 10km以上 32 67 1008
16 15:30 西北西 6 10km以上 31 70 1008 周辺でしゅう雨
16 15:00 西北西 6 10km以上 31 79 1009 弱いしゅう雨
16 14:30 北西 7 10km以上 33 63 1009 弱いしゅう雨
16 14:17 西北西 6 10km以上 33 63 1009 弱いしゅう雨
16 14:00 西北西 5 10km以上 32 67 1010 弱いしゅう雨
16 13:30 西北西 5 10km以上 33 59 1010 弱いしゅう雨
16 13:00 西北西 4 10km以上 34 60 1011 弱いしゅう雨
16 12:30 西北西 4 10km以上 32 67 1011
16 12:00 西北西 2 10km以上 32 67 1011
16 11:30 北西 3 10km以上 32 67 1012
16 11:00 西 2 10km以上 32 67 1012
16 10:30 西 2 10km以上 32 63 1012
16 10:00 1 10km以上 31 66 1012
16 09:30 1 10km以上 31 70 1012
16 09:00 1 10km以上 31 75 1012
YPDN 172300Z 26006KT 9999 FEW021 BKN145 29/25 Q1011 NOSIG
YPDN 172230Z 27004KT 9999 FEW017 SCT150 29/25 Q1010 NOSIG
YPDN 172200Z 27005KT 9999 FEW017 SCT150 29/25 Q1010 NOSIG
YPDN 172130Z 28003KT 9999 FEW016 BKN140 28/25 Q1009 NOSIG
YPDN 172100Z 27003KT 9999 FEW016 BKN140 BKN150 28/25 Q1009 NOSIG
YPDN 172030Z 26004KT 9999 FEW016 BKN130 28/25 Q1009 NOSIG
YPDN 172000Z 27004KT 9999 FEW015 BKN130 28/25 Q1009 NOSIG
YPDN 171930Z 26003KT 9999 FEW015 BKN180 28/25 Q1009
YPDN 171900Z 23003KT 9999 FEW015 BKN140 28/25 Q1009
YPDN 171830Z 26005KT CAVOK 28/25 Q1008
YPDN 171800Z 27004KT CAVOK 28/25 Q1009
YPDN 171730Z 26004KT CAVOK 28/24 Q1009
YPDN 171700Z 23001KT CAVOK 27/24 Q1009
YPDN 171630Z 00000KT CAVOK 27/24 Q1009
YPDN 171600Z 26001KT CAVOK 27/24 Q1010
YPDN 171530Z 25002KT CAVOK 27/24 Q1010
YPDN 171500Z 19002KT CAVOK 27/24 Q1011
YPDN 171430Z 17003KT CAVOK 28/24 Q1011
YPDN 171400Z 19004KT CAVOK 28/24 Q1011
YPDN 171330Z 21005KT CAVOK 28/23 Q1011
YPDN 171300Z 20005KT CAVOK 27/24 Q1011
YPDN 171230Z 18005KT CAVOK 27/23 Q1011 NOSIG RMK USE TAF FOR ARRIVALS AFTER 1230Z
YPDN 171200Z 17003KT CAVOK 27/23 Q1010 NOSIG RMK USE TAF FOR ARRIVALS AFTER 1230Z
YPDN 171130Z 23004KT CAVOK 27/23 Q1010 NOSIG RMK USE TAF FOR ARRIVALS AFTER 1230Z
YPDN 171100Z 22004KT 9999 FEW015 SCT135 27/23 Q1010 NOSIG RMK USE TAF FOR ARRIVALS AFTER 1230Z
YPDN 171030Z 18005KT 9999 FEW020 SCT135 27/22 Q1009 NOSIG RMK USE TAF FOR ARRIVALS AFTER 1230Z
YPDN 171000Z 19007KT 9999 FEW020 SCT185 27/22 Q1009 NOSIG
YPDN 170930Z 20007KT 9999 FEW020 SCT150 28/23 Q1009 NOSIG
YPDN 170900Z 21008KT 9999 FEW028 BKN350 30/21 Q1009 FM0930 25008KT 9999 FEW030
YPDN 170830Z 19010KT 9999 FEW030 SCT150 BKN350 29/20 Q1008 FM0930 27008KT 9999 FEW030
YPDN 170800Z 20005KT 170V230 9999 VCSH FEW020 SCT150 BKN370 31/19 Q1008 FM0820 26010KT 9999 FEW030
YPDN 170730Z 14009KT 9999 -SHRA VCTS SCT028 SCT140 FEW030CB 28/17 Q1008 FM0730 30012KT 9999 FEW030 TEMPO 0730/0830 3000 SHRA SCT010
YPDN 170700Z 15010KT 130V270 9999 4900S -SHRA FEW025 SCT032 BKN058 FEW028CB 28/18 Q1008 RETS FM0700 30012KT 9999 FEW030 TEMPO 0700/0830 VRB20G35KT 1000 TSRA BKN010 SCT020CB
YPDN 170642Z 29012KT 9999 -TSRA FEW020 SCT055 FEW028CB 33/24 Q1008 FM0642 30012KT 9999 FEW030 TEMPO 0642/0830 VRB20G35KT 1000 TSRA BKN010 SCT020CB
YPDN 170600Z 29013KT 9999 VCTS FEW020 FEW030CB 33/24 Q1008 FM0600 30014KT 9999 FEW030 INTER 0700/0830 4000 SHRA SCT010
YPDN 170530Z 30013KT 9999 VCSH FEW020 FEW030CB 33/24 Q1008 DIST CB TOP TO SSW
YPDN 170500Z 30013KT 9999 VCSH FEW030 33/24 Q1009 FM0500 30012KT 9999 FEW030 INTER 0500/0600 4000 SHRA SCT010
YPDN 170430Z 30012KT 9999 FEW027 FEW030TCU 33/24 Q1009 FM0430 30012KT 9999 FEW030 INTER 0500/0600 4000 SHRA SCT010
YPDN 170400Z 30010KT 9999 FEW030 33/24 Q1010
YPDN 170330Z 29010KT 9999 SCT030 33/24 Q1010 NOSIG
YPDN 170300Z 31008KT 9999 SCT028 32/24 Q1011
YPDN 170230Z 31008KT 9999 SCT029 33/25 Q1011 NOSIG
YPDN 170200Z 30005KT 9999 SCT029 32/24 Q1011
YPDN 170130Z 24006KT 220V280 9999 SCT024 31/24 Q1011
YPDN 170100Z 26004KT 230V300 9999 SCT024 31/24 Q1012 NOSIG
YPDN 170030Z 27006KT 9999 FEW021 30/24 Q1012 NOSIG
YPDN 170000Z 28006KT 9999 FEW019 30/25 Q1012
YPDN 162330Z 29004KT 9999 FEW017 30/25 Q1012 NOSIG
YPDN 162300Z 11001KT 9999 FEW014 28/25 Q1012
YPDN 162230Z 09001KT 9999 FEW013 BKN160 26/24 Q1011 NOSIG
YPDN 162200Z 12002KT 9999 FEW013 BKN160 26/24 Q1011
YPDN 162130Z 12002KT 9999 FEW013 BKN160 25/24 Q1011 NOSIG
YPDN 162100Z 00000KT 9999 FEW013 BKN160 25/24 Q1010
YPDN 162030Z 00000KT 9999 FEW013 SCT155 25/24 Q1010 NOSIG
YPDN 162000Z 00000KT 9999 FEW014 25/24 Q1010 NOSIG
YPDN 161930Z 00000KT CAVOK 25/24 Q1009
YPDN 161900Z 35002KT CAVOK 25/24 Q1009
YPDN 161830Z 00000KT CAVOK 25/24 Q1009
YPDN 161800Z 00000KT CAVOK 25/24 Q1009
YPDN 161730Z 35002KT CAVOK 25/24 Q1009
YPDN 161700Z 35003KT CAVOK 26/24 Q1009
YPDN 161630Z 18002KT CAVOK 26/24 Q1010
YPDN 161600Z 15003KT CAVOK 26/24 Q1010
YPDN 161530Z 14001KT CAVOK 26/23 Q1011
YPDN 161500Z 24001KT CAVOK 26/23 Q1011
YPDN 161430Z 16004KT CAVOK 26/23 Q1012
YPDN 161400Z 09001KT CAVOK 26/23 Q1012
YPDN 161330Z 09005KT CAVOK 26/23 Q1012
YPDN 161300Z 11005KT CAVOK 26/23 Q1012
YPDN 161230Z 13005KT CAVOK 26/23 Q1011
YPDN 161200Z 16005KT CAVOK 26/23 Q1011 NOSIG RMK USE TAF FOR ARRIVALS AFTER 1230Z
YPDN 161130Z 15005KT CAVOK 26/23 Q1011 NOSIG RMK USE TAF FOR ARRIVALS AFTER 1230Z
YPDN 161100Z 16006KT 9999 FEW018 BKN135 26/23 Q1011 NOSIG RMK USE TAF FOR ARRIVALS AFTER 1230Z
YPDN 161030Z 14008KT 9999 FEW022 BKN300 26/22 Q1011 TEMPO 1030/1200 VRB25G40KT 1000 TSRA BKN010 SCT020CB RMK USE TAF FOR ARRIVALS AFTER 1230Z
YPDN 161000Z 17008KT 9999 FEW020CB SCT100 BKN350 26/22 Q1011 FM1030 20008KT 9999 SCT020 TEMPO 1030/1200 VRB25G40KT 1000 TSRA BKN010 SCT020CB
YPDN 160930Z 19012KT 9999 VCSH FEW020CB SCT100 BKN280 26/22 Q1010 FM1000 20008KT 9999 FEW020 TEMPO 1100/1200 VRB25G40KT 1000 TSRA BKN010 SCT020CB
YPDN 160900Z 20015KT 9999 VCSH FEW020 BKN047 BKN150 FEW020CB 28/21 Q1010 FM1000 28008KT 9999 FEW020 TEMPO 0915/1200 VRB25G50KT 1000 TSRA BKN010 SCT020CB
YPDN 160830Z 28013KT 9999 FEW018CB SCT060 BKN150 31/24 Q1009 FM1000 28008KT 9999 FEW020 TEMPO 0930/1100 VRB25G50KT 1000 TSRA BKN010 SCT020CB
YPDN 160800Z 28013KT 9999 FEW020 BKN340 FEW024CB 31/24 Q1008 FM0830 28011KT 9999 FEW020
YPDN 160730Z 29013KT 9999 FEW028 SCT330 32/24 Q1008 NOSIG
YPDN 160700Z 29012KT 9999 FEW028 SCT330 32/24 Q1008 SSE-S NOSIG
YPDN 160630Z 29011KT 9999 FEW028 32/25 Q1008 TOPS TO S TEMPO 0800/0900 VRB25G50KT 1000 TSRA BKN010 SCT020CB
YPDN 160600Z 29011KT 9999 VCSH FEW028 31/25 Q1008 FM0630 30010KT 9999 FEW030 TEMPO 0630/0830 VRB25G50KT 1000 TSRA BKN010 SCT020CB
YPDN 160530Z 29012KT 9999 -SHRA FEW027TCU 31/27 Q1009 RESHRA FM0630 30010KT 9999 SCT030 TEMPO 0530/0830 VRB25G50KT 1000 TSRA BKN010 SCT020CB
YPDN 160500Z 32013KT 9999 3000E -SHRA FEW027TCU SCT045 BKN125 33/25 Q1009 FM0530 30010KT 9999 SCT030 INTER 0500/0530 3000 SHRA SCT010 TEMPO 0530/0800 VRB25G50KT 1000 TSRA BKN010 SCT020CB
YPDN 160447Z 29012KT 9999 4900E -SHRA FEW027TCU SCT030 33/25 Q1009 FM0530 30010KT 9999 SCT030 INTER 0450/0530 4000 SHRA SCT010 TEMPO 0530/0747 VRB25G50KT 1000 TSRA BKN010 SCT020CB
YPDN 160430Z 29010KT 9999 -SHRA SCT027 FEW028TCU 32/25 Q1010 FM0530 30010KT 9999 SCT030 INTER 0500/0530 4000 SHRA SCT010 TEMPO 0530/0730 VRB25G50KT 1000 TSRA BKN010 SCT020CB
YPDN 160400Z 29010KT 9999 -SHRA FEW030 SCT048 33/24 Q1010 FM0430 30010KT 9999 SCT030 TEMPO 0530/0700 VRB25G50KT 1000 TSRA BKN010 SCT020CB
YPDN 160330Z 29007KT 9999 -SHRA FEW027TCU SCT030 34/25 Q1011 FM0400 30010KT 9999 SCT030
YPDN 160300Z 30007KT 9999 FEW024TCU SCT028 32/25 Q1011 FM0330 30010KT 9999 SCT030
YPDN 160230Z 29004KT 260V330 9999 SCT024 32/25 Q1011 FM0300 30010KT 9999 SCT025
YPDN 160200Z 31006KT 9999 FEW024 SCT042 32/25 Q1012 FM0300 30010KT 9999 SCT025
YPDN 160130Z 28003KT 9999 SCT024 32/25 Q1012 FM0300 30010KT 9999 SCT025
YPDN 160100Z 27004KT 9999 SCT027 32/24 Q1012 FM0300 30010KT 9999 SCT025
YPDN 160030Z 17001KT 9999 FEW023 31/24 Q1012 FM0300 30010KT 9999 SCT025
YPDN 160000Z 35001KT 9999 FEW019 31/25 Q1012 FM0300 30010KT 9999 SCT025
YPDN 152330Z 19001KT 9999 SCT017 31/26 Q1012 FM0300 30010KT 9999 SCT025